createdAt,value
2018-03-26T00:01:36.638Z,0.40
2018-03-26T00:04:03.097Z,0.40
2018-03-26T00:06:29.470Z,0.40
2018-03-26T00:08:55.977Z,0.30
2018-03-26T00:11:22.536Z,0.30
2018-03-26T00:13:49.072Z,0.40
2018-03-26T00:16:15.526Z,0.40
2018-03-26T00:18:42.015Z,0.20
2018-03-26T00:21:08.381Z,0.20
2018-03-26T00:23:35.628Z,0.30
2018-03-26T00:26:02.789Z,0.30
2018-03-26T00:28:29.968Z,0.20
2018-03-26T00:30:56.402Z,0.20
2018-03-26T00:33:22.848Z,0.20
2018-03-26T00:35:49.332Z,0.30
2018-03-26T00:38:16.483Z,0.20
2018-03-26T00:40:43.684Z,0.10
2018-03-26T00:43:10.245Z,0.10
2018-03-26T00:45:36.653Z,0.00
2018-03-26T00:48:03.156Z,0.00
2018-03-26T00:50:29.517Z,0.10
2018-03-26T00:52:55.942Z,0.00
2018-03-26T00:55:22.461Z,0.00
2018-03-26T00:57:48.872Z,0.00
2018-03-26T01:00:15.324Z,0.00
2018-03-26T01:02:41.848Z,0.00
2018-03-26T01:05:08.271Z,-0.10
2018-03-26T01:07:35.409Z,-0.10
2018-03-26T01:10:01.831Z,-0.10
2018-03-26T01:12:28.286Z,-0.20
2018-03-26T01:14:55.504Z,-0.40
2018-03-26T01:17:21.928Z,-0.40
2018-03-26T01:19:48.392Z,-0.40
2018-03-26T01:22:15.520Z,-0.60
2018-03-26T01:24:42.005Z,-0.60
2018-03-26T01:27:09.136Z,-0.50
2018-03-26T01:29:36.276Z,-0.50
2018-03-26T01:32:02.737Z,-0.50
2018-03-26T01:34:29.845Z,-0.50
2018-03-26T01:36:56.258Z,-0.50
2018-03-26T01:39:22.696Z,-0.60
2018-03-26T01:41:49.093Z,-0.60
2018-03-26T01:44:15.515Z,-0.50
2018-03-26T01:46:41.944Z,-0.60
2018-03-26T01:49:08.359Z,-0.50
2018-03-26T01:51:34.727Z,-0.50
2018-03-26T01:54:01.151Z,-0.50
2018-03-26T01:56:27.537Z,-0.50
2018-03-26T01:58:53.925Z,-0.50
2018-03-26T02:01:20.413Z,-0.50
2018-03-26T02:03:47.601Z,-0.60
2018-03-26T02:06:14.072Z,-0.60
2018-03-26T02:08:40.480Z,-0.60
2018-03-26T02:11:06.945Z,-0.50
2018-03-26T02:13:33.352Z,-0.40
2018-03-26T02:15:59.813Z,-0.50
2018-03-26T02:18:27.005Z,-0.50
2018-03-26T02:20:54.167Z,-0.50
2018-03-26T02:23:20.557Z,-0.50
2018-03-26T02:25:47.742Z,-0.40
2018-03-26T02:28:14.255Z,-0.40
2018-03-26T02:30:40.654Z,-0.40
2018-03-26T02:33:07.095Z,-0.50
2018-03-26T02:35:33.491Z,-0.60
2018-03-26T02:37:59.924Z,-0.60
2018-03-26T02:40:27.076Z,-0.50
2018-03-26T02:42:53.552Z,-0.50
2018-03-26T02:45:19.992Z,-0.40
2018-03-26T02:47:46.451Z,-0.40
2018-03-26T02:50:12.899Z,-0.50
2018-03-26T02:52:39.339Z,-0.60
2018-03-26T02:55:06.526Z,-0.60
2018-03-26T02:57:32.950Z,-0.60
2018-03-26T02:59:59.506Z,-0.70
2018-03-26T03:02:25.930Z,-0.60
2018-03-26T03:04:52.357Z,-0.50
2018-03-26T03:07:18.791Z,-0.60
2018-03-26T03:09:45.417Z,-0.60
2018-03-26T03:12:11.870Z,-0.70
2018-03-26T03:14:38.284Z,-0.70
2018-03-26T03:17:05.440Z,-1.20
2018-03-26T03:19:31.892Z,-1.20
2018-03-26T03:21:58.338Z,-1.20
2018-03-26T03:24:24.758Z,-1.30
2018-03-26T03:26:51.142Z,-1.50
2018-03-26T03:29:17.597Z,-1.40
2018-03-26T03:31:44.034Z,-1.40
2018-03-26T03:34:10.471Z,-1.30
2018-03-26T03:36:37.053Z,-1.20
2018-03-26T03:39:03.573Z,-1.20
2018-03-26T03:41:29.986Z,-1.20
2018-03-26T03:43:56.402Z,-1.40
2018-03-26T03:46:23.648Z,-1.70
2018-03-26T03:48:50.164Z,-1.70
2018-03-26T03:51:17.378Z,-1.60
2018-03-26T03:53:43.842Z,-1.60
2018-03-26T03:56:11.001Z,-1.50
2018-03-26T03:58:37.616Z,-1.50
2018-03-26T04:01:04.062Z,-1.60
2018-03-26T04:03:30.492Z,-1.60
2018-03-26T04:05:56.921Z,-1.90
2018-03-26T04:08:23.356Z,-2.00
2018-03-26T04:10:49.828Z,-2.00
2018-03-26T04:13:16.359Z,-1.90
2018-03-26T04:15:43.493Z,-1.80
2018-03-26T04:18:09.969Z,-1.80
2018-03-26T04:20:36.409Z,-1.60
2018-03-26T04:23:03.721Z,-1.60
2018-03-26T04:25:30.869Z,-1.70
2018-03-26T04:27:57.286Z,-1.70
2018-03-26T04:30:24.407Z,-1.80
2018-03-26T04:32:50.853Z,-1.80
2018-03-26T04:35:17.305Z,-1.80
2018-03-26T04:37:43.772Z,-2.10
2018-03-26T04:40:10.940Z,-2.10
2018-03-26T04:42:37.357Z,-2.10
2018-03-26T04:45:04.574Z,-2.10
2018-03-26T04:47:30.961Z,-2.20
2018-03-26T04:49:57.454Z,-2.20
2018-03-26T04:52:23.885Z,-2.30
2018-03-26T04:54:50.332Z,-2.30
2018-03-26T04:57:16.736Z,-2.30
2018-03-26T04:59:43.252Z,-2.20
2018-03-26T05:02:09.728Z,-2.30
2018-03-26T05:04:36.181Z,-2.20
2018-03-26T05:07:02.612Z,-2.10
2018-03-26T05:09:29.100Z,-2.10
2018-03-26T05:11:55.811Z,-2.00
2018-03-26T05:14:22.315Z,-2.00
2018-03-26T05:16:48.825Z,-1.90
2018-03-26T05:19:15.220Z,-1.90
2018-03-26T05:21:41.713Z,-1.80
2018-03-26T05:24:08.146Z,-1.80
2018-03-26T05:26:35.459Z,-1.60
2018-03-26T05:29:01.974Z,-1.60
2018-03-26T05:31:28.454Z,-1.50
2018-03-26T05:33:55.607Z,-1.40
2018-03-26T05:36:22.079Z,-1.40
2018-03-26T05:38:48.605Z,-1.40
2018-03-26T05:41:15.898Z,-1.10
2018-03-26T05:43:42.960Z,-1.20
2018-03-26T05:46:09.532Z,-1.10
2018-03-26T05:48:36.905Z,-1.10
2018-03-26T05:51:03.427Z,-1.20
2018-03-26T05:53:31.321Z,-1.30
2018-03-26T05:55:57.824Z,-1.40
2018-03-26T05:58:25.173Z,-1.20
2018-03-26T06:00:51.605Z,-1.20
2018-03-26T06:03:19.009Z,-1.20
2018-03-26T06:05:46.196Z,-0.90
2018-03-26T06:08:14.134Z,-0.60
2018-03-26T06:10:42.207Z,-0.60
2018-03-26T06:13:08.974Z,-0.10
2018-03-26T06:15:35.709Z,-0.40
2018-03-26T06:18:02.320Z,-0.50
2018-03-26T06:20:28.855Z,-0.40
2018-03-26T06:22:55.677Z,-0.30
2018-03-26T06:25:22.274Z,-0.50
2018-03-26T06:27:48.926Z,-0.20
2018-03-26T06:30:15.712Z,-0.10
2018-03-26T06:32:42.251Z,0.00
2018-03-26T06:35:08.825Z,0.00
2018-03-26T06:37:42.097Z,-0.80
2018-03-26T06:40:08.582Z,-0.80
2018-03-26T06:42:35.089Z,-0.60
2018-03-26T06:45:01.748Z,-0.70
2018-03-26T06:47:28.386Z,-0.90
2018-03-26T06:49:54.897Z,-1.00
2018-03-26T06:52:21.397Z,-1.00
2018-03-26T06:54:47.872Z,-0.70
2018-03-26T06:57:14.397Z,-0.80
2018-03-26T06:59:40.934Z,-1.10
2018-03-26T07:02:07.389Z,-1.10
2018-03-26T07:04:34.095Z,-1.00
2018-03-26T07:07:00.546Z,-1.20
2018-03-26T07:09:28.181Z,-1.30
2018-03-26T07:11:55.353Z,-1.10
2018-03-26T07:14:21.826Z,-0.90
2018-03-26T07:16:48.992Z,-1.20
2018-03-26T07:19:15.535Z,-1.40
2018-03-26T07:21:42.955Z,-1.10
2018-03-26T07:24:09.617Z,-1.10
2018-03-26T07:26:36.337Z,-1.20
2018-03-26T07:29:03.754Z,-1.00
2018-03-26T07:31:30.199Z,-0.90
2018-03-26T07:33:56.768Z,-0.60
2018-03-26T07:36:23.326Z,0.20
2018-03-26T07:38:49.969Z,0.00
2018-03-26T07:41:16.639Z,0.20
2018-03-26T07:43:43.173Z,0.70
2018-03-26T07:46:09.828Z,0.90
2018-03-26T07:48:37.144Z,1.00
2018-03-26T07:51:04.386Z,0.90
2018-03-26T07:53:30.885Z,0.90
2018-03-26T07:55:57.417Z,1.00
2018-03-26T07:58:24.861Z,0.80
2018-03-26T08:00:51.345Z,1.80
2018-03-26T08:03:17.886Z,1.90
2018-03-26T08:05:45.262Z,1.60
2018-03-26T08:08:11.738Z,1.60
2018-03-26T08:10:39.015Z,1.70
2018-03-26T08:13:05.450Z,1.60
2018-03-26T08:15:31.922Z,2.00
2018-03-26T08:17:59.341Z,2.20
2018-03-26T08:20:25.785Z,1.90
2018-03-26T08:22:53.069Z,4.30
2018-03-26T08:25:19.561Z,4.20
2018-03-26T08:27:46.159Z,3.30
2018-03-26T08:30:12.580Z,3.40
2018-03-26T08:32:39.003Z,3.00
2018-03-26T08:35:11.401Z,2.00
2018-03-26T08:37:37.885Z,1.40
2018-03-26T08:40:04.494Z,0.90
2018-03-26T08:42:31.824Z,1.20
2018-03-26T08:44:58.925Z,0.60
2018-03-26T08:47:26.381Z,0.50
2018-03-26T08:49:52.914Z,0.50
2018-03-26T08:52:20.278Z,0.40
2018-03-26T08:54:47.760Z,0.40
2018-03-26T08:57:14.382Z,0.40
2018-03-26T08:59:41.660Z,1.10
2018-03-26T09:02:08.236Z,1.20
2018-03-26T09:04:35.608Z,1.60
2018-03-26T09:07:02.925Z,1.30
2018-03-26T09:09:29.466Z,1.30
2018-03-26T09:11:56.148Z,2.40
2018-03-26T09:14:22.693Z,2.60
2018-03-26T09:16:49.312Z,3.80
2018-03-26T09:19:15.808Z,3.50
2018-03-26T09:21:42.426Z,3.80
2018-03-26T09:24:08.944Z,4.20
2018-03-26T09:26:35.462Z,3.90
2018-03-26T09:29:01.983Z,3.00
2018-03-26T09:31:28.497Z,2.10
2018-03-26T09:33:55.175Z,1.90
2018-03-26T09:36:22.400Z,1.20
2018-03-26T09:38:49.972Z,1.60
2018-03-26T09:41:18.135Z,1.90
2018-03-26T09:43:44.850Z,1.90
2018-03-26T09:46:11.391Z,1.90
2018-03-26T09:48:38.374Z,1.60
2018-03-26T09:51:04.836Z,1.30
2018-03-26T09:53:32.073Z,1.00
2018-03-26T09:55:58.569Z,1.00
2018-03-26T09:58:25.046Z,1.30
2018-03-26T10:00:52.349Z,1.10
2018-03-26T10:03:18.842Z,1.10
2018-03-26T10:05:45.582Z,1.20
2018-03-26T10:08:12.171Z,1.30
2018-03-26T10:10:38.673Z,1.00
2018-03-26T10:13:05.178Z,1.00
2018-03-26T10:15:31.681Z,1.10
2018-03-26T10:17:58.193Z,1.20
2018-03-26T10:20:24.710Z,1.00
2018-03-26T10:22:51.293Z,1.00
2018-03-26T10:25:17.787Z,1.10
2018-03-26T10:27:45.251Z,0.90
2018-03-26T10:30:11.774Z,0.80
2018-03-26T10:32:38.222Z,0.60
2018-03-26T10:35:04.791Z,0.70
2018-03-26T10:37:31.315Z,0.70
2018-03-26T10:39:57.888Z,0.70
2018-03-26T10:42:24.469Z,0.80
2018-03-26T10:44:51.090Z,1.10
2018-03-26T10:47:17.670Z,0.70
2018-03-26T10:49:44.193Z,0.30
2018-03-26T10:52:10.720Z,0.20
2018-03-26T10:54:37.170Z,0.30
2018-03-26T10:57:03.734Z,0.20
2018-03-26T10:59:30.180Z,0.10
2018-03-26T11:01:57.443Z,0.40
2018-03-26T11:04:24.316Z,0.50
2018-03-26T11:06:50.729Z,0.70
2018-03-26T11:09:18.030Z,0.30
2018-03-26T11:11:44.657Z,0.30
2018-03-26T11:14:11.165Z,0.40
2018-03-26T11:16:37.808Z,0.40
2018-03-26T11:19:04.216Z,0.40
2018-03-26T11:21:30.661Z,0.50
2018-03-26T11:23:57.561Z,0.40
2018-03-26T11:26:24.149Z,0.30
2018-03-26T11:28:51.389Z,0.30
2018-03-26T11:31:18.022Z,0.30
2018-03-26T11:33:45.552Z,0.60
2018-03-26T11:36:12.098Z,0.70
2018-03-26T11:38:38.541Z,0.50
2018-03-26T11:41:05.099Z,0.30
2018-03-26T11:43:31.592Z,0.30
2018-03-26T11:45:58.124Z,0.40
2018-03-26T11:48:25.681Z,0.00
2018-03-26T11:50:52.157Z,-0.10
2018-03-26T11:53:19.430Z,0.20
2018-03-26T11:55:45.923Z,0.20
2018-03-26T11:58:12.453Z,0.40
2018-03-26T12:00:38.938Z,0.60
2018-03-26T12:03:06.228Z,0.40
2018-03-26T12:05:32.790Z,0.30
2018-03-26T12:07:59.180Z,0.30
2018-03-26T12:10:25.631Z,0.30
2018-03-26T12:12:52.230Z,0.30
2018-03-26T12:15:19.444Z,0.50
2018-03-26T12:17:46.024Z,0.50
2018-03-26T12:20:24.669Z,0.40
2018-03-26T12:22:51.150Z,0.40
2018-03-26T12:25:18.548Z,0.60
2018-03-26T12:27:57.096Z,0.60
2018-03-26T12:30:24.404Z,0.80
2018-03-26T12:32:50.898Z,1.00
2018-03-26T12:35:29.342Z,1.00
2018-03-26T12:37:55.833Z,0.50
2018-03-26T12:40:34.378Z,0.40
2018-03-26T12:43:00.935Z,0.40
2018-03-26T12:45:39.452Z,1.30
2018-03-26T12:48:06.036Z,2.10
2018-03-26T12:50:44.692Z,3.00
2018-03-26T12:53:12.045Z,3.70
2018-03-26T12:55:38.512Z,3.70
2018-03-26T12:58:16.919Z,3.30
2018-03-26T13:00:50.540Z,3.30
2018-03-26T13:03:17.775Z,4.10
2018-03-26T13:05:45.201Z,4.70
2018-03-26T13:08:11.663Z,4.70
2018-03-26T13:10:38.153Z,4.30
2018-03-26T13:13:04.688Z,3.60
2018-03-26T13:15:32.193Z,3.60
2018-03-26T13:17:59.707Z,3.60
2018-03-26T13:20:26.165Z,3.60
2018-03-26T13:22:52.752Z,3.60
2018-03-26T13:25:19.294Z,3.00
2018-03-26T13:27:45.732Z,3.40
2018-03-26T13:30:12.312Z,3.30
2018-03-26T13:32:39.540Z,3.30
2018-03-26T13:35:06.044Z,3.30
2018-03-26T13:37:32.462Z,3.40
2018-03-26T13:39:59.018Z,3.60
2018-03-26T13:42:25.473Z,3.70
2018-03-26T13:44:52.031Z,3.40
2018-03-26T13:47:18.531Z,3.00
2018-03-26T13:49:45.357Z,2.50
2018-03-26T13:52:11.857Z,2.20
2018-03-26T13:54:38.453Z,1.60
2018-03-26T13:57:04.932Z,1.30
2018-03-26T13:59:31.408Z,1.30
2018-03-26T14:01:58.237Z,1.40
2018-03-26T14:04:25.662Z,1.70
2018-03-26T14:06:52.980Z,1.40
2018-03-26T14:09:31.593Z,1.50
2018-03-26T14:12:10.914Z,1.20
2018-03-26T14:14:49.616Z,1.20
2018-03-26T14:17:28.847Z,0.90
2018-03-26T14:19:55.354Z,1.00
2018-03-26T14:22:22.010Z,1.00
2018-03-26T14:24:48.567Z,1.10
2018-03-26T14:27:15.083Z,1.00
2018-03-26T14:29:41.512Z,1.10
2018-03-26T14:32:08.049Z,1.30
2018-03-26T14:34:35.269Z,1.20
2018-03-26T14:37:01.942Z,1.20
2018-03-26T14:39:28.449Z,1.10
2018-03-26T14:41:55.739Z,0.90
2018-03-26T14:44:23.033Z,0.70
2018-03-26T14:46:49.511Z,0.70
2018-03-26T14:49:16.821Z,0.70
2018-03-26T14:51:43.969Z,0.70
2018-03-26T14:54:10.403Z,0.70
2018-03-26T14:56:37.732Z,0.80
2018-03-26T14:59:05.107Z,0.80
2018-03-26T15:01:31.511Z,1.00
2018-03-26T15:04:00.944Z,1.10
2018-03-26T15:06:27.472Z,0.90
2018-03-26T15:08:53.953Z,1.00
2018-03-26T15:11:20.492Z,0.90
2018-03-26T15:13:47.663Z,0.90
2018-03-26T15:16:14.994Z,0.60
2018-03-26T15:18:42.183Z,0.70
2018-03-26T15:21:08.591Z,0.70
2018-03-26T15:23:35.198Z,0.70
2018-03-26T15:26:02.522Z,0.50
2018-03-26T15:28:29.125Z,0.50
2018-03-26T15:30:56.314Z,0.50
2018-03-26T15:33:23.234Z,0.40
2018-03-26T15:35:49.780Z,0.60
2018-03-26T15:38:16.977Z,0.70
2018-03-26T15:40:43.462Z,0.70
2018-03-26T15:43:09.911Z,0.70
2018-03-26T15:45:37.188Z,0.50
2018-03-26T15:48:04.811Z,0.50
2018-03-26T15:50:31.334Z,0.60
2018-03-26T15:52:57.860Z,0.50
2018-03-26T15:55:25.169Z,0.50
2018-03-26T15:57:51.755Z,0.40
2018-03-26T16:00:18.208Z,0.50
2018-03-26T16:02:50.600Z,0.40
2018-03-26T16:05:17.114Z,0.40
2018-03-26T16:07:44.646Z,0.40
2018-03-26T16:10:11.321Z,0.40
2018-03-26T16:12:37.806Z,0.30
2018-03-26T16:15:04.402Z,0.30
2018-03-26T16:17:31.001Z,0.20
2018-03-26T16:19:57.453Z,0.20
2018-03-26T16:22:23.952Z,0.20
2018-03-26T16:24:50.401Z,0.20
2018-03-26T16:27:16.865Z,0.20
2018-03-26T16:29:43.321Z,0.20
2018-03-26T16:32:09.844Z,0.20
2018-03-26T16:34:36.336Z,0.10
2018-03-26T16:37:05.183Z,0.10
2018-03-26T16:39:31.690Z,0.00
2018-03-26T16:42:11.012Z,0.00
2018-03-26T16:44:38.460Z,0.00
2018-03-26T16:47:05.016Z,0.00
2018-03-26T16:49:31.537Z,0.00
2018-03-26T16:51:58.120Z,0.00
2018-03-26T16:54:25.254Z,-0.10
2018-03-26T16:56:51.785Z,-0.10
2018-03-26T16:59:18.242Z,-0.20
2018-03-26T17:01:44.826Z,-0.20
2018-03-26T17:04:11.254Z,-0.30
2018-03-26T17:06:37.997Z,-0.30
2018-03-26T17:09:04.687Z,-0.30
2018-03-26T17:11:31.158Z,-0.40
2018-03-26T17:13:57.615Z,-0.40
2018-03-26T17:16:24.866Z,-0.40
2018-03-26T17:18:52.131Z,-0.50
2018-03-26T17:21:18.596Z,-0.50
2018-03-26T17:23:45.219Z,-0.50
2018-03-26T17:26:12.474Z,-0.60
2018-03-26T17:28:38.952Z,-0.60
2018-03-26T17:31:05.713Z,-0.60
2018-03-26T17:33:32.993Z,-0.70
2018-03-26T17:36:00.299Z,-0.70
2018-03-26T17:38:26.829Z,-0.70
2018-03-26T17:40:53.515Z,-0.70
2018-03-26T17:43:20.087Z,-0.80
2018-03-26T17:45:46.904Z,-0.80
2018-03-26T17:48:13.313Z,-0.80
2018-03-26T17:50:39.855Z,-0.90
2018-03-26T17:53:06.744Z,-0.90
2018-03-26T17:55:33.142Z,-0.90
2018-03-26T17:58:00.381Z,-0.90
2018-03-26T18:00:27.701Z,-0.90
2018-03-26T18:02:54.219Z,-1.00
2018-03-26T18:05:20.759Z,-1.00
2018-03-26T18:07:47.294Z,-1.10
2018-03-26T18:10:13.857Z,-1.10
2018-03-26T18:12:40.237Z,-1.00
2018-03-26T18:15:07.462Z,-1.10
2018-03-26T18:17:34.668Z,-1.10
2018-03-26T18:20:01.920Z,-1.10
2018-03-26T18:22:29.140Z,-1.20
2018-03-26T18:24:56.397Z,-1.20
2018-03-26T18:27:22.913Z,-1.20
2018-03-26T18:29:49.458Z,-1.30
2018-03-26T18:32:15.917Z,-1.30
2018-03-26T18:34:42.313Z,-1.30
2018-03-26T18:37:08.761Z,-1.30
2018-03-26T18:39:35.195Z,-1.30
2018-03-26T18:42:02.403Z,-1.30
2018-03-26T18:44:28.874Z,-1.30
2018-03-26T18:46:56.147Z,-1.40
2018-03-26T18:49:24.526Z,-1.50
2018-03-26T18:51:50.984Z,-1.40
2018-03-26T18:54:17.440Z,-1.50
2018-03-26T18:56:43.909Z,-1.60
2018-03-26T18:59:11.225Z,-1.60
2018-03-26T19:01:37.746Z,-1.50
2018-03-26T19:04:04.197Z,-1.60
2018-03-26T19:06:30.777Z,-1.70
2018-03-26T19:08:57.879Z,-1.70
2018-03-26T19:11:24.519Z,-1.80
2018-03-26T19:13:51.808Z,-1.80
2018-03-26T19:16:18.388Z,-1.80
2018-03-26T19:18:45.964Z,-1.80
2018-03-26T19:21:12.502Z,-1.80
2018-03-26T19:23:38.965Z,-1.80
2018-03-26T19:26:05.553Z,-1.90
2018-03-26T19:28:31.991Z,-1.90
2018-03-26T19:30:58.519Z,-1.80
2018-03-26T19:33:25.073Z,-1.80
2018-03-26T19:35:51.582Z,-1.80
2018-03-26T19:38:18.264Z,-1.80
2018-03-26T19:40:45.036Z,-1.90
2018-03-26T19:43:11.527Z,-1.90
2018-03-26T19:45:38.867Z,-1.80
2018-03-26T19:48:05.910Z,-1.90
2018-03-26T19:50:32.524Z,-1.80
2018-03-26T19:52:59.701Z,-1.90
2018-03-26T19:55:26.109Z,-1.90
2018-03-26T19:57:53.241Z,-1.90
2018-03-26T20:00:19.696Z,-1.90
2018-03-26T20:02:46.290Z,-2.10
2018-03-26T20:05:12.819Z,-2.10
2018-03-26T20:07:39.275Z,-2.10
2018-03-26T20:10:05.722Z,-2.10
2018-03-26T20:12:32.205Z,-2.20
2018-03-26T20:14:58.615Z,-2.30
2018-03-26T20:17:25.145Z,-2.30
2018-03-26T20:19:52.289Z,-2.30
2018-03-26T20:22:18.692Z,-2.30
2018-03-26T20:24:45.188Z,-2.30
2018-03-26T20:27:11.646Z,-2.30
2018-03-26T20:29:38.910Z,-2.30
2018-03-26T20:32:05.276Z,-2.30
2018-03-26T20:34:32.525Z,-2.40
2018-03-26T20:36:59.146Z,-2.40
2018-03-26T20:39:25.724Z,-2.50
2018-03-26T20:41:52.964Z,-2.50
2018-03-26T20:44:19.405Z,-2.50
2018-03-26T20:46:45.821Z,-2.40
2018-03-26T20:49:12.265Z,-2.50
2018-03-26T20:51:38.717Z,-2.60
2018-03-26T20:54:05.203Z,-2.60
2018-03-26T20:56:31.597Z,-2.60
2018-03-26T20:58:58.831Z,-2.60
2018-03-26T21:01:25.231Z,-2.60
2018-03-26T21:03:51.648Z,-2.60
2018-03-26T21:06:18.086Z,-2.60
2018-03-26T21:08:44.524Z,-2.60
2018-03-26T21:11:11.371Z,-2.60
2018-03-26T21:13:37.937Z,-2.70
2018-03-26T21:16:05.169Z,-2.70
2018-03-26T21:18:31.597Z,-2.70
2018-03-26T21:20:58.011Z,-2.70
2018-03-26T21:23:24.564Z,-2.80
2018-03-26T21:25:51.002Z,-2.80
2018-03-26T21:28:17.372Z,-2.80
2018-03-26T21:30:43.781Z,-2.90
2018-03-26T21:33:10.248Z,-2.90
2018-03-26T21:35:36.717Z,-2.90
2018-03-26T21:38:03.172Z,-2.90
2018-03-26T21:40:29.561Z,-2.90
2018-03-26T21:42:55.994Z,-2.90
2018-03-26T21:45:22.776Z,-2.90
2018-03-26T21:47:49.217Z,-2.90
2018-03-26T21:50:15.610Z,-3.00
2018-03-26T21:52:42.071Z,-3.00
2018-03-26T21:55:08.559Z,-3.00
2018-03-26T21:57:34.968Z,-3.10
2018-03-26T22:00:01.417Z,-3.10
2018-03-26T22:02:28.621Z,-2.80
2018-03-26T22:04:55.048Z,-2.80
2018-03-26T22:07:21.509Z,-2.90
2018-03-26T22:09:47.909Z,-2.80
2018-03-26T22:12:14.385Z,-2.80
2018-03-26T22:14:41.661Z,-2.90
2018-03-26T22:17:08.847Z,-2.90
2018-03-26T22:19:35.325Z,-2.90
2018-03-26T22:22:02.594Z,-2.90
2018-03-26T22:24:29.153Z,-2.90
2018-03-26T22:26:55.551Z,-2.80
2018-03-26T22:29:22.806Z,-2.90
2018-03-26T22:31:49.197Z,-2.90
2018-03-26T22:34:15.600Z,-2.90
2018-03-26T22:36:41.992Z,-2.90
2018-03-26T22:39:08.404Z,-2.90
2018-03-26T22:41:34.834Z,-3.00
2018-03-26T22:44:01.256Z,-3.00
2018-03-26T22:46:27.722Z,-3.10
2018-03-26T22:48:54.180Z,-3.10
2018-03-26T22:51:20.613Z,-3.10
2018-03-26T22:53:47.809Z,-3.00
2018-03-26T22:56:14.230Z,-3.00
2018-03-26T22:58:40.785Z,-3.00
2018-03-26T23:01:07.239Z,-3.10
2018-03-26T23:03:33.722Z,-3.10
2018-03-26T23:06:00.113Z,-3.10
2018-03-26T23:08:26.501Z,-3.10
2018-03-26T23:10:52.918Z,-3.20
2018-03-26T23:13:19.286Z,-3.10
2018-03-26T23:15:45.807Z,-3.10
2018-03-26T23:18:12.268Z,-3.10
2018-03-26T23:20:38.653Z,-3.10
2018-03-26T23:23:05.052Z,-3.10
2018-03-26T23:25:31.485Z,-3.00
2018-03-26T23:27:58.689Z,-3.10
2018-03-26T23:30:25.216Z,-3.20
2018-03-26T23:32:51.634Z,-3.20
2018-03-26T23:35:18.796Z,-3.10
2018-03-26T23:37:45.410Z,-3.20
2018-03-26T23:40:11.836Z,-3.20
2018-03-26T23:42:38.282Z,-3.20
2018-03-26T23:45:04.712Z,-3.20
2018-03-26T23:47:31.967Z,-3.30
2018-03-26T23:49:58.404Z,-3.40
2018-03-26T23:52:25.572Z,-3.50
2018-03-26T23:54:52.033Z,-3.50
2018-03-26T23:57:18.455Z,-3.50
2018-03-26T23:59:45.033Z,-3.40
